West Point, Illinois
Current Conditions -  °F | °C
As of 10:35 AM on Thursday 23 Oct 2014 (Local Time) from KEOK Reporting Station
Broken Clouds Broken Clouds  
Wind Chill: 54°   Ceiling: 3900
Heat Index: 54°   Visibility: 10mi
Dew Point: 45°   Wind: 13mph
Humidity: 72%   Direction: 170°S
Pressure: 30.11"   Gusts: 22mph
Location:  40.26°N, 91.18°W
Report Text: KEOK 231535Z AUTO 17011G19KT 10SM BKN039 12/07 A3011 RMK AO2
Loading
Personal Weather Stations






























Interactive Weather Map
Tropical Storm Tracking
New forecast layout! Learn more

10-Day Weather Forecast

Advertisements
Track Severe Weather on mobile